KTEX/TEX METAR and TAF weather

Enter ICAO airport designator
Station Type Date Time Source
KTEX METAR 2019/04/19 10:15 UTC NOAA

KTEX 191015Z AUTO 15005KT 10SM CLR 01/M05 A3040 RMK AO2


Station Type Date Time Source
KTEX Decoded METAR 2019/04/19 10:15 UTC NOAA

Telluride, Telluride Regional Airport, CO, United States (KTEX) 37-57-14N 107-54-31W
Apr 19, 2019 - 06:15 AM EDT / 2019.04.19 1015 UTC
Wind: from the SSE (150 degrees) at 6 MPH (5 KT):0
Visibility: 10 mile(s):0
Sky conditions: clear
Temperature: 33 F (1 C)
Windchill: 26 F (-3 C):1
Dew Point: 23 F (-5 C)
Relative Humidity: 64%
Pressure (altimeter): 30.4 in. Hg (1029 hPa)
ob: KTEX 191015Z AUTO 15005KT 10SM CLR 01/M05 A3040 RMK AO2
cycle: 10

Station Type Date Time Source
KTEX TAF 2019/04/19 06:36 UTC NOAA

TAF KTEX 190533Z 1906/2006 14005KT P6SM SKC
FM191800 25005KT P6SM SKC
FM200300 VRB03KT P6SM SKC

Example: see airport list